createdAt,value
2019-04-25T00:03:04.298Z,17.18
2019-04-25T00:08:08.784Z,17.10
2019-04-25T00:13:13.656Z,17.15
2019-04-25T00:18:18.041Z,17.01
2019-04-25T00:23:22.310Z,16.87
2019-04-25T00:28:26.505Z,16.87
2019-04-25T00:33:31.545Z,16.88
2019-04-25T00:38:35.873Z,16.84
2019-04-25T00:43:42.184Z,16.74
2019-04-25T00:48:45.993Z,16.84
2019-04-25T00:53:52.055Z,16.94
2019-04-25T00:59:11.862Z,16.81
2019-04-25T01:04:18.476Z,16.45
2019-04-25T01:09:22.683Z,16.51
2019-04-25T01:14:26.885Z,16.40
2019-04-25T01:19:31.093Z,16.48
2019-04-25T01:24:35.292Z,16.31
2019-04-25T01:29:39.491Z,16.28
2019-04-25T01:35:08.787Z,16.25
2019-04-25T01:40:38.233Z,16.19
2019-04-25T01:45:43.815Z,16.29
2019-04-25T01:50:49.287Z,16.24
2019-04-25T01:56:02.358Z,16.07
2019-04-25T02:00:59.737Z,16.20
2019-04-25T02:06:05.078Z,16.34
2019-04-25T02:11:37.655Z,16.21
2019-04-25T02:16:41.850Z,16.19
2019-04-25T02:21:46.127Z,16.19
2019-04-25T02:26:50.317Z,16.27
2019-04-25T02:31:58.494Z,16.15
2019-04-25T02:37:02.978Z,15.99
2019-04-25T02:42:08.405Z,15.92
2019-04-25T02:47:24.873Z,15.90
2019-04-25T02:52:46.559Z,15.89
2019-04-25T02:57:50.745Z,15.86
2019-04-25T03:02:57.341Z,15.74
2019-04-25T03:08:01.824Z,15.69
2019-04-25T03:13:11.473Z,15.75
2019-04-25T03:18:15.353Z,15.69
2019-04-25T03:23:42.193Z,15.74
2019-04-25T03:28:44.966Z,15.69
2019-04-25T03:33:49.161Z,15.79
2019-04-25T03:38:54.155Z,15.81
2019-04-25T03:43:58.404Z,15.79
2019-04-25T03:49:05.009Z,15.73
2019-04-25T03:54:09.558Z,15.56
2019-04-25T03:59:16.060Z,15.46
2019-04-25T04:04:20.442Z,15.40
2019-04-25T04:09:24.661Z,15.28
2019-04-25T04:14:28.853Z,15.23
2019-04-25T04:19:38.047Z,15.14
2019-04-25T04:24:46.661Z,15.08
2019-04-25T04:29:50.859Z,14.96
2019-04-25T04:34:55.062Z,14.91
2019-04-25T04:39:59.263Z,14.78
2019-04-25T04:45:04.209Z,14.90
2019-04-25T04:50:09.023Z,14.58
2019-04-25T04:55:16.065Z,14.46
2019-04-25T05:00:19.556Z,14.48
2019-04-25T05:05:45.758Z,14.44
2019-04-25T05:10:49.959Z,14.40
2019-04-25T05:15:54.148Z,14.43
2019-04-25T05:20:58.368Z,14.49
2019-04-25T05:26:04.267Z,14.37
2019-04-25T05:31:18.059Z,14.39
2019-04-25T05:36:23.885Z,14.30
2019-04-25T05:41:50.274Z,14.30
2019-04-25T05:46:54.895Z,14.32
2019-04-25T05:51:59.083Z,14.51
2019-04-25T05:57:03.713Z,14.91
2019-04-25T06:02:07.921Z,15.14
2019-04-25T06:07:12.117Z,15.60
2019-04-25T06:12:26.709Z,15.79
2019-04-25T06:17:39.287Z,15.55
2019-04-25T06:22:53.473Z,15.95
2019-04-25T06:27:59.440Z,16.39
2019-04-25T06:33:03.650Z,16.44
2019-04-25T06:38:07.843Z,16.60
2019-04-25T06:43:13.441Z,16.56
2019-04-25T06:48:36.861Z,16.56
2019-04-25T06:53:41.112Z,16.79
2019-04-25T06:58:45.384Z,16.32
2019-04-25T07:03:49.619Z,16.33
2019-04-25T07:08:53.833Z,16.96
2019-04-25T07:13:58.058Z,17.55
2019-04-25T07:19:02.539Z,17.25
2019-04-25T07:24:07.161Z,17.07
2019-04-25T07:29:33.717Z,17.38
2019-04-25T07:34:38.037Z,17.36
2019-04-25T07:39:42.226Z,17.06
2019-04-25T07:44:52.487Z,16.62
2019-04-25T07:49:52.375Z,16.38
2019-04-25T07:54:56.580Z,16.68
2019-04-25T08:00:00.790Z,17.13
2019-04-25T08:05:11.041Z,17.67
2019-04-25T08:10:16.551Z,17.80
2019-04-25T08:15:38.355Z,17.53
2019-04-25T08:20:43.407Z,17.83
2019-04-25T08:25:47.718Z,18.26
2019-04-25T08:30:54.832Z,17.99
2019-04-25T08:36:08.211Z,18.01
2019-04-25T08:41:04.139Z,17.98
2019-04-25T08:46:08.406Z,18.26
2019-04-25T08:51:15.614Z,18.42
2019-04-25T08:56:24.982Z,18.22
2019-04-25T09:01:49.955Z,18.64
2019-04-25T09:06:54.176Z,18.57
2019-04-25T09:11:58.401Z,18.77
2019-04-25T09:17:03.254Z,19.05
2019-04-25T09:22:07.459Z,19.18
2019-04-25T09:27:13.320Z,19.00
2019-04-25T09:32:18.371Z,19.24
2019-04-25T09:42:33.822Z,19.55
2019-04-25T09:52:50.219Z,19.77
2019-04-25T09:58:16.323Z,20.31
2019-04-25T10:03:20.534Z,19.80
2019-04-25T10:08:24.754Z,20.06
2019-04-25T10:13:29.049Z,20.57
2019-04-25T10:18:34.569Z,21.21
2019-04-25T10:23:39.856Z,21.21
2019-04-25T10:28:45.230Z,21.65
2019-04-25T10:33:49.577Z,21.17
2019-04-25T10:39:05.116Z,21.56
2019-04-25T10:43:59.778Z,21.67
2019-04-25T10:49:04.438Z,22.44
2019-04-25T10:54:08.757Z,23.35
2019-04-25T10:59:14.477Z,23.26
2019-04-25T11:04:37.783Z,23.89
2019-04-25T11:09:44.956Z,24.71
2019-04-25T11:14:48.772Z,25.21
2019-04-25T11:19:54.272Z,25.71
2019-04-25T11:24:59.106Z,27.25
2019-04-25T11:30:10.749Z,28.02
2019-04-25T11:35:09.516Z,28.03
2019-04-25T11:40:23.499Z,28.02
2019-04-25T11:45:27.731Z,27.17
2019-04-25T11:50:31.983Z,28.77
2019-04-25T11:55:36.193Z,28.64
2019-04-25T12:00:40.370Z,28.62
2019-04-25T12:05:45.839Z,30.62
2019-04-25T12:10:51.566Z,29.66
2019-04-25T12:15:55.905Z,30.04
2019-04-25T12:21:00.105Z,31.13
2019-04-25T12:26:04.456Z,30.81
2019-04-25T12:31:08.640Z,30.87
2019-04-25T12:36:13.624Z,30.38
2019-04-25T12:41:17.842Z,29.90
2019-04-25T12:46:28.438Z,31.29
2019-04-25T12:51:32.621Z,31.92
2019-04-25T12:56:36.814Z,32.89
2019-04-25T13:01:40.991Z,32.80
2019-04-25T13:06:45.206Z,28.84
2019-04-25T13:11:49.409Z,31.56
2019-04-25T13:16:53.625Z,33.37
2019-04-25T13:21:57.976Z,32.51
2019-04-25T13:27:08.019Z,33.43
2019-04-25T13:32:35.900Z,31.66
2019-04-25T13:37:40.086Z,33.92
2019-04-25T13:42:44.272Z,34.15
2019-04-25T13:47:48.462Z,33.31
2019-04-25T13:52:53.393Z,32.79
2019-04-25T13:57:57.835Z,31.28
2019-04-25T14:03:02.150Z,29.93
2019-04-25T14:08:06.374Z,30.32
2019-04-25T14:13:10.950Z,29.39
2019-04-25T14:18:44.060Z,31.16
2019-04-25T14:23:48.826Z,30.17
2019-04-25T14:28:54.167Z,32.18
2019-04-25T14:33:58.457Z,33.94
2019-04-25T14:39:02.660Z,34.35
2019-04-25T14:44:06.867Z,34.53
2019-04-25T14:49:11.061Z,33.15
2019-04-25T14:54:30.674Z,34.10
2019-04-25T14:59:34.932Z,33.70
2019-04-25T15:04:39.132Z,34.12
2019-04-25T15:09:43.341Z,33.12
2019-04-25T15:14:47.979Z,34.73
2019-04-25T15:19:52.186Z,32.56
2019-04-25T15:24:56.420Z,32.91
2019-04-25T15:30:00.635Z,32.88
2019-04-25T15:35:05.314Z,32.68
2019-04-25T15:40:16.235Z,30.15
2019-04-25T15:45:48.331Z,30.47
2019-04-25T15:50:53.389Z,29.29
2019-04-25T15:55:57.587Z,29.14
2019-04-25T16:01:01.778Z,29.13
2019-04-25T16:06:05.998Z,28.79
2019-04-25T16:11:10.206Z,28.44
2019-04-25T16:16:14.398Z,27.98
2019-04-25T16:21:18.598Z,27.64
2019-04-25T16:26:23.154Z,27.43
2019-04-25T16:31:28.927Z,27.28
2019-04-25T16:36:33.356Z,27.13
2019-04-25T16:41:40.021Z,26.96
2019-04-25T16:46:43.828Z,26.91
2019-04-25T16:51:48.012Z,26.60
2019-04-25T16:56:52.227Z,26.58
2019-04-25T17:01:56.467Z,26.31
2019-04-25T17:07:00.799Z,26.35
2019-04-25T17:12:05.652Z,26.16
2019-04-25T17:17:38.019Z,26.10
2019-04-25T17:22:43.703Z,25.85
2019-04-25T17:27:47.892Z,25.69
2019-04-25T17:33:05.182Z,25.56
2019-04-25T17:38:35.480Z,25.41
2019-04-25T17:43:40.124Z,25.29
2019-04-25T17:48:44.374Z,25.04
2019-04-25T17:53:48.668Z,24.86
2019-04-25T17:58:52.848Z,24.62
2019-04-25T18:03:57.331Z,24.47
2019-04-25T18:09:01.554Z,24.42
2019-04-25T18:14:05.940Z,24.18
2019-04-25T18:19:25.062Z,24.00
2019-04-25T18:24:58.173Z,23.90
2019-04-25T18:30:03.008Z,23.78
2019-04-25T18:35:24.878Z,23.66
2019-04-25T18:40:50.948Z,23.49
2019-04-25T18:45:59.702Z,23.36
2019-04-25T18:51:04.089Z,23.20
2019-04-25T18:56:30.126Z,23.14
2019-04-25T19:01:52.453Z,23.05
2019-04-25T19:06:58.377Z,22.90
2019-04-25T19:12:03.677Z,22.79
2019-04-25T19:17:09.251Z,22.65
2019-04-25T19:22:13.439Z,22.55
2019-04-25T19:27:23.529Z,22.45
2019-04-25T19:32:23.726Z,22.21
2019-04-25T19:37:27.915Z,22.30
2019-04-25T19:42:36.689Z,22.26
2019-04-25T19:47:41.488Z,22.19
2019-04-25T19:52:45.694Z,22.13
2019-04-25T19:57:50.312Z,22.06
2019-04-25T20:03:16.366Z,21.97
2019-04-25T20:08:33.068Z,21.89
2019-04-25T20:13:37.371Z,21.82
2019-04-25T20:18:41.587Z,21.74
2019-04-25T20:23:46.464Z,21.68
2019-04-25T20:28:51.250Z,21.63
2019-04-25T20:34:05.381Z,21.55
2019-04-25T20:39:01.475Z,21.51
2019-04-25T20:44:05.669Z,21.41
2019-04-25T20:49:09.909Z,21.36
2019-04-25T20:54:14.095Z,21.32
2019-04-25T20:59:20.786Z,21.26
2019-04-25T21:04:40.983Z,21.17
2019-04-25T21:09:45.167Z,21.11
2019-04-25T21:15:09.014Z,20.99
2019-04-25T21:20:13.221Z,20.92
2019-04-25T21:25:17.404Z,20.82
2019-04-25T21:30:21.581Z,20.77
2019-04-25T21:35:25.992Z,20.71
2019-04-25T21:40:40.683Z,20.68
2019-04-25T21:45:45.589Z,20.59
2019-04-25T21:50:49.996Z,20.53
2019-04-25T21:55:55.251Z,20.46
2019-04-25T22:01:05.053Z,20.42
2019-04-25T22:06:09.422Z,20.34
2019-04-25T22:11:13.612Z,20.24
2019-04-25T22:16:18.067Z,20.23
2019-04-25T22:21:22.999Z,20.17
2019-04-25T22:26:27.454Z,20.14
2019-04-25T22:31:37.011Z,20.11
2019-04-25T22:36:41.875Z,20.07
2019-04-25T22:41:47.445Z,20.04
2019-04-25T22:46:52.671Z,20.05
2019-04-25T22:51:56.855Z,20.01
2019-04-25T22:57:01.779Z,19.98
2019-04-25T23:02:35.140Z,19.93
2019-04-25T23:07:39.345Z,19.83
2019-04-25T23:12:43.921Z,19.83
2019-04-25T23:17:48.338Z,19.76
2019-04-25T23:22:52.895Z,19.70
2019-04-25T23:28:16.239Z,19.65
2019-04-25T23:33:20.896Z,19.52
2019-04-25T23:38:25.366Z,19.52
2019-04-25T23:43:29.591Z,19.47
2019-04-25T23:48:33.827Z,19.43
2019-04-25T23:53:38.027Z,19.40
2019-04-25T23:58:42.236Z,19.37
